Sunday, October 21, 2018, 6:30 AM EDT
Back to Local

KHWV, Shirley Brookhaven Airport

Location: Shirley, NY, United States Lat: 40.817
Local Time: 6:30 AM EDT (10:30 GMT) Lon: -72.867
Time Zone: US/Eastern Elev: 82 ft

Show me the last for .
Show Decoded

2018-10-21 05:56 METAR KHWV 210956Z AUTO 34010KT 9SM -RA FEW033 BKN041 OVC049 08/05 A2967 RMK AO2
                 RAB20 SLP045 P0000 T00830050 =
2018-10-21 04:56 METAR KHWV 210856Z AUTO 32009KT 10SM BKN050 OVC065 09/05 A2962 RMK AO2 SLP031
                 60000 T00940050 53015 =
2018-10-21 03:56 METAR KHWV 210756Z AUTO 36008KT 10SM BKN070 09/06 A2958 RMK AO2 SLP016 T00940061
                 =
2018-10-21 02:56 METAR KHWV 210656Z AUTO 31006KT 10SM BKN075 BKN095 10/07 A2959 RMK AO2 RAB16E25
                 SLP018 P0000 T01000072 =
2018-10-21 01:56 METAR KHWV 210556Z AUTO 34008KT 10SM CLR 11/07 A2958 RMK AO2 SLP016 T01060072
                 10106 20067 55015 =
2018-10-21 00:56 METAR KHWV 210456Z AUTO 33003KT 10SM CLR 09/07 A2957 RMK AO2 SLP014 T00890067
                 401830067 =
2018-10-20 23:56 METAR KHWV 210356Z AUTO 00000KT 6SM BR FEW075 07/06 A2960 RMK AO2 SLP023
                 T00720056 =
2018-10-20 22:56 METAR KHWV 210256Z AUTO 00000KT 7SM CLR 08/07 A2962 RMK AO2 SLP031 T00830067
                 51004 =
2018-10-20 21:56 METAR KHWV 210156Z AUTO 00000KT 10SM CLR 08/07 A2962 RMK AO2 SLP030 T00830067 =
2018-10-20 20:56 METAR KHWV 210056Z AUTO 00000KT 10SM CLR 09/07 A2962 RMK AO2 SLP029 T00890072 =
2018-10-20 19:56 METAR KHWV 202356Z AUTO 00000KT 10SM CLR 10/08 A2961 RMK AO2 SLP027 T01000078
                 10183 20100 50003 =
2018-10-20 18:56 METAR KHWV 202256Z AUTO 00000KT 10SM CLR 12/08 A2962 RMK AO2 SLP029 T01220083 =
2018-10-20 17:56 METAR KHWV 202156Z AUTO 24003KT 10SM CLR 14/07 A2961 RMK AO2 SLP028 T01440067 =
2018-10-20 16:56 METAR KHWV 202056Z AUTO 26006KT 10SM CLR 17/07 A2960 RMK AO2 SLP024 T01720072
                 56020 =
2018-10-20 15:56 METAR KHWV 201956Z AUTO 26008KT 10SM BKN040 18/08 A2962 RMK AO2 SLP029 T01830083
                 =
2018-10-20 14:56 METAR KHWV 201856Z AUTO 27013G22KT 10SM SCT036 17/08 A2964 RMK AO2 SLP038
                 T01720078 =
2018-10-20 13:56 METAR KHWV 201756Z AUTO 29010KT 10SM BKN030 BKN035 16/09 A2966 RMK AO2 SLP045
                 60000 T01610094 10172 20139 58018 =
2018-10-20 12:56 METAR KHWV 201656Z AUTO 26008KT 10SM SCT025 BKN030 OVC035 16/10 A2969 RMK AO2
                 SLP054 T01560100 =
2018-10-20 11:56 METAR KHWV 201556Z AUTO 26011G19KT 10SM BKN020 OVC031 16/11 A2970 RMK AO2 SLP059
                 T01610106 =
2018-10-20 11:33 METAR KHWV 201533Z AUTO 26013KT 10SM BKN018 BKN070 16/11 A2971 RMK AO2 T01610111
                 =
2018-10-20 10:56 METAR KHWV 201456Z AUTO 22010G16KT 10SM SCT020 OVC070 16/11 A2972 RMK AO2 SLP062
                 60000 T01560111 58013 =
2018-10-20 09:56 METAR KHWV 201356Z AUTO 25008KT 10SM FEW017 FEW036 BKN050 15/11 A2975 RMK AO2
                 SLP072 T01500111 =
2018-10-20 08:56 METAR KHWV 201256Z AUTO 23010KT 10SM FEW017 OVC033 14/12 A2976 RMK AO2 RAB52E53
                 SLP077 P0000 T01440117 =
2018-10-20 07:56 METAR KHWV 201156Z AUTO 23007KT 10SM OVC060 14/12 A2976 RMK AO2 SLP076 60006
                 70006 T01390117 10161 20128 56009 =
2018-10-20 06:56 METAR KHWV 201056Z AUTO 22008KT 10SM FEW018 SCT024 OVC070 13/11 A2976 RMK AO2
                 RAE42 SLP077 P0002 T01330111 =
2018-10-20 06:51 METAR KHWV 201051Z AUTO 23008KT 190V260 10SM BKN021 BKN065 OVC075 13/11 A2977
                 RMK AO2 RAE42 P0002 =

Support USWX by starting your Amazon purchase here.